Torm Vita — 9V3909 — position and weather

sailwx.info

Track history (hours):
 
Tides and Currents Weather Stations Pressure Air Temp Water Temp Dewpoint Dewpoint Depression Visibility Wind Speed Wind Dir Waves Ship Positions

Torm Vita

Last reported at 2018-Jun-18 06:30 UTC. Time now 2018-Jun-23 15:32 UTC.
Position N 09°14' W 079°56'.

Length 183 m; draft 10.6 m.

Type: Ship. MMSI: 565591000.

Date/timePositionNaut miles runAvg speedWind from/ knotsBaromVisibWave heightAir tempDewpointWater temp
2018-Jun-18 06:30N 09°14' W 079°56'3 5.0
2018-Jun-18 05:59N 09°16' W 079°55'1 0.9
2018-Jun-18 04:30N 09°18' W 079°55'4 7.8
2018-Jun-18 04:00N 09°21' W 079°55'3 5.6
2018-Jun-18 03:29N 09°24' W 079°55'2 4.2
2018-Jun-18 03:01N 09°26' W 079°56'3 0.2
2018-Jun-17 15:11N 09°27' W 079°58'0 0.0
2018-Jun-17 12:32N 09°27' W 079°58'0 0.1
2018-Jun-17 12:20N 09°27' W 079°58'0 0.1
2018-Jun-17 11:59N 09°27' W 079°58'0 0.1
2018-Jun-17 10:14N 09°27' W 079°58'0 0.0
2018-Jun-17 09:47N 09°27' W 079°58'0 0.1
2018-Jun-17 09:26N 09°27' W 079°58'0 0.1
2018-Jun-17 08:23N 09°27' W 079°58'0 0.2
2018-Jun-17 07:26N 09°27' W 079°58'0 0.0
2018-Jun-17 06:56N 09°27' W 079°58'0 0.0
2018-Jun-17 06:20N 09°27' W 079°58'0 0.0
2018-Jun-17 05:50N 09°27' W 079°58'0 0.1
2018-Jun-17 05:26N 09°27' W 079°58'0 0.1
2018-Jun-17 04:59N 09°27' W 079°58'0 0.1
2018-Jun-17 04:29N 09°27' W 079°58'0 0.0
2018-Jun-17 02:56N 09°27' W 079°58'0 0.1
2018-Jun-17 02:29N 09°27' W 079°58'0 0.0
2018-Jun-16 23:38N 09°27' W 079°58'0 0.2
2018-Jun-16 23:29N 09°27' W 079°58'0 0.1
2018-Jun-16 22:59N 09°27' W 079°58'0 0.1
2018-Jun-16 22:29N 09°27' W 079°58'0 0.0
2018-Jun-16 21:59N 09°27' W 079°58'0 0.0
2018-Jun-16 21:29N 09°27' W 079°58'0 0.0
2018-Jun-16 20:56N 09°27' W 079°58'0 0.0
2018-Jun-16 20:29N 09°27' W 079°58'0 0.0
2018-Jun-16 19:59N 09°27' W 079°58'0 0.0
2018-Jun-16 19:26N 09°27' W 079°58'0 0.0
2018-Jun-16 18:53N 09°27' W 079°58'0 0.0
2018-Jun-16 18:29N 09°27' W 079°58'0 0.0
2018-Jun-16 17:56N 09°27' W 079°58'0 0.0
2018-Jun-16 17:29N 09°27' W 079°58'0 0.0
2018-Jun-16 16:26N 09°27' W 079°58'0 0.0
2018-Jun-16 15:53N 09°27' W 079°58'0 0.0
2018-Jun-16 15:23N 09°27' W 079°58'0 0.0
2018-Jun-16 14:59N 09°27' W 079°58'0 0.0
2018-Jun-16 14:23N 09°27' W 079°58'0 0.0
2018-Jun-16 13:59N 09°27' W 079°58'0 0.0
2018-Jun-16 13:26N 09°27' W 079°58'0 0.0
2018-Jun-16 12:59N 09°27' W 079°58'0 0.2
2018-Jun-16 12:30N 09°27' W 079°58'2 4.5
2018-Jun-16 12:00N 09°29' W 079°57'611.1
2018-Jun-16 11:30N 09°33' W 079°53'811.2
2018-Jun-16 10:49N 09°41' W 079°51'  
Track history (hours):
 
Tides and Currents Weather Stations Pressure Air Temp Water Temp Dewpoint Dewpoint Depression Visibility Wind Speed Wind Dir Waves Ship Positions

Torm Vita

Last reported at 2018-Jun-18 06:30 UTC. Time now 2018-Jun-23 15:32 UTC.
Position N 09°14' W 079°56'.

Length 183 m; draft 10.6 m.

Type: Ship. MMSI: 565591000.

Date/timePositionNaut miles runAvg speedWind from/ knotsBaromVisibWave heightAir tempDewpointWater temp
2018-Jun-18 06:30N 09°14' W 079°56'3 5.0
2018-Jun-18 05:59N 09°16' W 079°55'1 0.9
2018-Jun-18 04:30N 09°18' W 079°55'4 7.8
2018-Jun-18 04:00N 09°21' W 079°55'3 5.6
2018-Jun-18 03:29N 09°24' W 079°55'2 4.2
2018-Jun-18 03:01N 09°26' W 079°56'3 0.2
2018-Jun-17 15:11N 09°27' W 079°58'0 0.0
2018-Jun-17 12:32N 09°27' W 079°58'0 0.1
2018-Jun-17 12:20N 09°27' W 079°58'0 0.1
2018-Jun-17 11:59N 09°27' W 079°58'0 0.1
2018-Jun-17 10:14N 09°27' W 079°58'0 0.0
2018-Jun-17 09:47N 09°27' W 079°58'0 0.1
2018-Jun-17 09:26N 09°27' W 079°58'0 0.1
2018-Jun-17 08:23N 09°27' W 079°58'0 0.2
2018-Jun-17 07:26N 09°27' W 079°58'0 0.0
2018-Jun-17 06:56N 09°27' W 079°58'0 0.0
2018-Jun-17 06:20N 09°27' W 079°58'0 0.0
2018-Jun-17 05:50N 09°27' W 079°58'0 0.1
2018-Jun-17 05:26N 09°27' W 079°58'0 0.1
2018-Jun-17 04:59N 09°27' W 079°58'0 0.1
2018-Jun-17 04:29N 09°27' W 079°58'0 0.0
2018-Jun-17 02:56N 09°27' W 079°58'0 0.1
2018-Jun-17 02:29N 09°27' W 079°58'0 0.0
2018-Jun-16 23:38N 09°27' W 079°58'0 0.2
2018-Jun-16 23:29N 09°27' W 079°58'0 0.1
2018-Jun-16 22:59N 09°27' W 079°58'0 0.1
2018-Jun-16 22:29N 09°27' W 079°58'0 0.0
2018-Jun-16 21:59N 09°27' W 079°58'0 0.0
2018-Jun-16 21:29N 09°27' W 079°58'0 0.0
2018-Jun-16 20:56N 09°27' W 079°58'0 0.0
2018-Jun-16 20:29N 09°27' W 079°58'0 0.0
2018-Jun-16 19:59N 09°27' W 079°58'0 0.0
2018-Jun-16 19:26N 09°27' W 079°58'0 0.0
2018-Jun-16 18:53N 09°27' W 079°58'0 0.0
2018-Jun-16 18:29N 09°27' W 079°58'0 0.0
2018-Jun-16 17:56N 09°27' W 079°58'0 0.0
2018-Jun-16 17:29N 09°27' W 079°58'0 0.0
2018-Jun-16 16:26N 09°27' W 079°58'0 0.0
2018-Jun-16 15:53N 09°27' W 079°58'0 0.0
2018-Jun-16 15:23N 09°27' W 079°58'0 0.0
2018-Jun-16 14:59N 09°27' W 079°58'0 0.0
2018-Jun-16 14:23N 09°27' W 079°58'0 0.0
2018-Jun-16 13:59N 09°27' W 079°58'0 0.0
2018-Jun-16 13:26N 09°27' W 079°58'0 0.0
2018-Jun-16 12:59N 09°27' W 079°58'0 0.2
2018-Jun-16 12:30N 09°27' W 079°58'2 4.5
2018-Jun-16 12:00N 09°29' W 079°57'611.1
2018-Jun-16 11:30N 09°33' W 079°53'811.2
2018-Jun-16 10:49N 09°41' W 079°51'  

Dump ship's entire track history